PWSweather.com
Personal Weather Stations
Station Observations
PICKERING
North Yorkshire, PickeringGB

North YorkshirePickeringGB

Lat: 54.2494, Lon: -0.7725

Elevation: 192

Station Type: Oregon Scientific WMR100

High Low Average
Temperature 70.5°F21.4°C 51.6°F10.9°C 62.6°F17.0°C
Dew Point 59.0°F15.0°C 44.6°F7.0°C 55.0°F12.8°C
Winds 6.9 mph 11.1 kmh Calm Calm 2.0 mph SSW3.2 kmh SSW
Wind Gusts 11.0 mph17.7 kmh -- 4.0 mph6.4 kmh
Humidity 79% 67% 75%
Pressure 29.92 in1013.2 mb 29.77 in1008.1 mb -
Precipitation 0.18 in4.6 mm - -
Hour Temp Dew Point Humidity Winds Wind Gusts Pressure Precip Precip Rate Daily Precip Total
12:00 AM 65.8°F18.8°C 59.0°F15.0°C 77% 0.7 mph NW1.1 kmh NW 3.4 mph5.5 kmh 29.83 in1010.2 mb 0.07 in1.8 mm 0.00 in0.0 mm 0.07 in1.8 mm
12:05 AM 65.8°F18.8°C 57.2°F14.0°C 76% 0.8 mph WSW1.3 kmh WSW 3.4 mph5.5 kmh 29.83 in1010.2 mb 0.07 in1.8 mm 0.00 in0.0 mm 0.07 in1.8 mm
12:10 AM 66.0°F18.9°C 59.0°F15.0°C 76% 0.7 mph WSW1.1 kmh WSW 3.4 mph5.5 kmh 29.83 in1010.2 mb 0.07 in1.8 mm 0.00 in0.0 mm 0.07 in1.8 mm
12:15 AM 66.0°F18.9°C 59.0°F15.0°C 76% 0.6 mph WSW1.0 kmh WSW 2.5 mph4.0 kmh 29.83 in1010.2 mb 0.07 in1.8 mm 0.00 in0.0 mm 0.07 in1.8 mm
12:20 AM 66.0°F18.9°C 59.0°F15.0°C 76% 0.4 mph WSW0.6 kmh WSW 2.5 mph4.0 kmh 29.83 in1010.2 mb 0.07 in1.8 mm 0.00 in0.0 mm 0.07 in1.8 mm
12:25 AM 66.0°F18.9°C 59.0°F15.0°C 76% 0.2 mph SW0.3 kmh SW 2.5 mph4.0 kmh 29.83 in1010.2 mb 0.07 in1.8 mm 0.00 in0.0 mm 0.07 in1.8 mm
12:30 AM 66.0°F18.9°C 59.0°F15.0°C 77% Calm Calm -- 29.83 in1010.2 mb 0.07 in1.8 mm 0.00 in0.0 mm 0.07 in1.8 mm
12:35 AM 65.8°F18.8°C 59.0°F15.0°C 77% Calm Calm -- 29.83 in1010.2 mb 0.07 in1.8 mm 0.00 in0.0 mm 0.07 in1.8 mm
12:40 AM 65.8°F18.8°C 59.0°F15.0°C 77% 0.1 mph W0.2 kmh W 1.1 mph1.8 kmh 29.83 in1010.2 mb 0.00 in0.0 mm 0.00 in0.0 mm 0.07 in1.8 mm
12:45 AM 65.8°F18.8°C 59.0°F15.0°C 77% 0.4 mph WSW0.6 kmh WSW 1.6 mph2.6 kmh 29.83 in1010.2 mb 0.00 in0.0 mm 0.00 in0.0 mm 0.07 in1.8 mm
12:50 AM 65.8°F18.8°C 57.2°F14.0°C 76% 0.8 mph W1.3 kmh W 1.6 mph2.6 kmh 29.83 in1010.2 mb 0.00 in0.0 mm 0.00 in0.0 mm 0.07 in1.8 mm
12:55 AM 65.8°F18.8°C 59.0°F15.0°C 77% 0.4 mph W0.6 kmh W 1.6 mph2.6 kmh 29.83 in1010.2 mb 0.04 in1.0 mm 0.48 in12.2 mm 0.11 in2.8 mm
01:00 AM 65.8°F18.8°C 59.0°F15.0°C 77% Calm Calm -- 29.83 in1010.2 mb 0.04 in1.0 mm 0.00 in0.0 mm 0.11 in2.8 mm
01:05 AM 65.8°F18.8°C 59.0°F15.0°C 77% Calm Calm -- 29.83 in1010.2 mb 0.04 in1.0 mm 0.00 in0.0 mm 0.11 in2.8 mm
01:10 AM 65.7°F18.7°C 59.0°F15.0°C 77% Calm Calm -- 29.83 in1010.2 mb 0.04 in1.0 mm 0.00 in0.0 mm 0.11 in2.8 mm
01:15 AM 65.7°F18.7°C 59.0°F15.0°C 77% Calm Calm -- 29.83 in1010.2 mb 0.04 in1.0 mm 0.00 in0.0 mm 0.11 in2.8 mm
01:20 AM 65.7°F18.7°C 59.0°F15.0°C 77% Calm Calm -- 29.83 in1010.2 mb 0.04 in1.0 mm 0.00 in0.0 mm 0.11 in2.8 mm
01:25 AM 65.7°F18.7°C 59.0°F15.0°C 77% Calm Calm -- 29.83 in1010.2 mb 0.04 in1.0 mm 0.00 in0.0 mm 0.11 in2.8 mm
01:30 AM 65.7°F18.7°C 59.0°F15.0°C 77% Calm Calm -- 29.83 in1010.2 mb 0.04 in1.0 mm 0.00 in0.0 mm 0.11 in2.8 mm
01:35 AM 65.7°F18.7°C 59.0°F15.0°C 78% Calm Calm -- 29.83 in1010.2 mb 0.04 in1.0 mm 0.00 in0.0 mm 0.11 in2.8 mm
01:40 AM 65.5°F18.6°C 59.0°F15.0°C 78% Calm Calm -- 29.83 in1010.2 mb 0.04 in1.0 mm 0.00 in0.0 mm 0.11 in2.8 mm
01:45 AM 65.5°F18.6°C 59.0°F15.0°C 78% Calm Calm -- 29.83 in1010.2 mb 0.04 in1.0 mm 0.00 in0.0 mm 0.11 in2.8 mm
01:50 AM 65.5°F18.6°C 59.0°F15.0°C 78% Calm Calm -- 29.83 in1010.2 mb 0.04 in1.0 mm 0.00 in0.0 mm 0.11 in2.8 mm
01:55 AM 65.5°F18.6°C 59.0°F15.0°C 78% 0.1 mph ESE0.2 kmh ESE 1.1 mph1.8 kmh 29.83 in1010.2 mb 0.00 in0.0 mm 0.00 in0.0 mm 0.11 in2.8 mm
02:00 AM 65.5°F18.6°C 59.0°F15.0°C 78% 0.5 mph ESE0.8 kmh ESE 1.6 mph2.6 kmh 29.83 in1010.2 mb 0.00 in0.0 mm 0.00 in0.0 mm 0.11 in2.8 mm
02:05 AM 65.5°F18.6°C 59.0°F15.0°C 78% 0.6 mph SE1.0 kmh SE 1.6 mph2.6 kmh 29.83 in1010.2 mb 0.00 in0.0 mm 0.00 in0.0 mm 0.11 in2.8 mm
02:10 AM 65.5°F18.6°C 59.0°F15.0°C 78% 0.7 mph SE1.1 kmh SE 2.7 mph4.3 kmh 29.83 in1010.2 mb 0.00 in0.0 mm 0.00 in0.0 mm 0.11 in2.8 mm
02:15 AM 65.5°F18.6°C 59.0°F15.0°C 78% 0.8 mph SE1.3 kmh SE 2.7 mph4.3 kmh 29.83 in1010.2 mb 0.00 in0.0 mm 0.00 in0.0 mm 0.11 in2.8 mm
02:20 AM 65.3°F18.5°C 59.0°F15.0°C 78% 1.1 mph SSE1.8 kmh SSE 2.7 mph4.3 kmh 29.83 in1010.2 mb 0.00 in0.0 mm 0.00 in0.0 mm 0.11 in2.8 mm
02:25 AM 65.3°F18.5°C 59.0°F15.0°C 78% 0.9 mph SSE1.4 kmh SSE 2.7 mph4.3 kmh 29.83 in1010.2 mb 0.00 in0.0 mm 0.00 in0.0 mm 0.11 in2.8 mm
02:30 AM 65.3°F18.5°C 59.0°F15.0°C 78% 0.3 mph SSE0.5 kmh SSE 1.6 mph2.6 kmh 29.83 in1010.2 mb 0.00 in0.0 mm 0.00 in0.0 mm 0.11 in2.8 mm
02:35 AM 65.3°F18.5°C 59.0°F15.0°C 78% Calm Calm -- 29.83 in1010.2 mb 0.00 in0.0 mm 0.00 in0.0 mm 0.11 in2.8 mm
02:40 AM 65.3°F18.5°C 59.0°F15.0°C 79% 0.7 mph SE1.1 kmh SE 2.2 mph3.5 kmh 29.83 in1010.2 mb 0.00 in0.0 mm 0.00 in0.0 mm 0.11 in2.8 mm
02:45 AM 65.1°F18.4°C 57.2°F14.0°C 78% 1.2 mph SE1.9 kmh SE 2.2 mph3.5 kmh 29.83 in1010.2 mb 0.00 in0.0 mm 0.00 in0.0 mm 0.11 in2.8 mm
02:50 AM 65.1°F18.4°C 57.2°F14.0°C 78% 1.1 mph SE1.8 kmh SE 2.0 mph3.2 kmh 29.83 in1010.2 mb 0.00 in0.0 mm 0.00 in0.0 mm 0.11 in2.8 mm
02:55 AM 65.1°F18.4°C 57.2°F14.0°C 78% 0.9 mph SE1.4 kmh SE 2.0 mph3.2 kmh 29.83 in1010.2 mb 0.00 in0.0 mm 0.00 in0.0 mm 0.11 in2.8 mm
03:00 AM 65.1°F18.4°C 59.0°F15.0°C 79% 0.6 mph SE1.0 kmh SE 1.6 mph2.6 kmh 29.83 in1010.2 mb 0.00 in0.0 mm 0.00 in0.0 mm 0.11 in2.8 mm
03:05 AM 65.1°F18.4°C 57.2°F14.0°C 78% 0.7 mph SSE1.1 kmh SSE 1.6 mph2.6 kmh 29.83 in1010.2 mb 0.00 in0.0 mm 0.00 in0.0 mm 0.11 in2.8 mm
03:10 AM 64.9°F18.3°C 59.0°F15.0°C 79% 0.8 mph SSE1.3 kmh SSE 1.6 mph2.6 kmh 29.80 in1009.1 mb 0.00 in0.0 mm 0.00 in0.0 mm 0.11 in2.8 mm
03:15 AM 64.9°F18.3°C 57.2°F14.0°C 78% 0.5 mph S0.8 kmh S 2.0 mph3.2 kmh 29.80 in1009.1 mb 0.00 in0.0 mm 0.00 in0.0 mm 0.11 in2.8 mm
03:20 AM 64.8°F18.2°C 57.2°F14.0°C 78% 1.0 mph SSW1.6 kmh SSW 2.5 mph4.0 kmh 29.80 in1009.1 mb 0.00 in0.0 mm 0.00 in0.0 mm 0.11 in2.8 mm
03:25 AM 64.8°F18.2°C 57.2°F14.0°C 78% 0.9 mph SSW1.4 kmh SSW 2.5 mph4.0 kmh 29.80 in1009.1 mb 0.00 in0.0 mm 0.00 in0.0 mm 0.11 in2.8 mm
03:30 AM 64.6°F18.1°C 57.2°F14.0°C 78% 0.6 mph S1.0 kmh S 2.0 mph3.2 kmh 29.80 in1009.1 mb 0.00 in0.0 mm 0.00 in0.0 mm 0.11 in2.8 mm
03:35 AM 64.6°F18.1°C 57.2°F14.0°C 78% 1.5 mph S2.4 kmh S 3.1 mph5.0 kmh 29.80 in1009.1 mb 0.00 in0.0 mm 0.00 in0.0 mm 0.11 in2.8 mm
03:40 AM 64.6°F18.1°C 57.2°F14.0°C 78% 2.1 mph S3.4 kmh S 3.1 mph5.0 kmh 29.80 in1009.1 mb 0.00 in0.0 mm 0.00 in0.0 mm 0.11 in2.8 mm
03:45 AM 64.4°F18.0°C 57.2°F14.0°C 78% 1.8 mph SSW2.9 kmh SSW 2.7 mph4.3 kmh 29.80 in1009.1 mb 0.00 in0.0 mm 0.00 in0.0 mm 0.11 in2.8 mm
03:50 AM 64.4°F18.0°C 57.2°F14.0°C 78% 0.9 mph SW1.4 kmh SW 2.7 mph4.3 kmh 29.80 in1009.1 mb 0.00 in0.0 mm 0.00 in0.0 mm 0.11 in2.8 mm
03:55 AM 64.2°F17.9°C 57.2°F14.0°C 78% 0.1 mph WSW0.2 kmh WSW 1.3 mph2.1 kmh 29.80 in1009.1 mb 0.00 in0.0 mm 0.00 in0.0 mm 0.11 in2.8 mm
04:00 AM 64.2°F17.9°C 57.2°F14.0°C 78% 0.3 mph WSW0.5 kmh WSW 1.3 mph2.1 kmh 29.80 in1009.1 mb 0.00 in0.0 mm 0.00 in0.0 mm 0.11 in2.8 mm
04:05 AM 64.2°F17.9°C 57.2°F14.0°C 78% 0.4 mph WSW0.6 kmh WSW 2.9 mph4.7 kmh 29.80 in1009.1 mb 0.00 in0.0 mm 0.00 in0.0 mm 0.11 in2.8 mm
04:10 AM 64.2°F17.9°C 57.2°F14.0°C 77% 0.9 mph WSW1.4 kmh WSW 2.9 mph4.7 kmh 29.80 in1009.1 mb 0.00 in0.0 mm 0.00 in0.0 mm 0.11 in2.8 mm
04:15 AM 64.0°F17.8°C 57.2°F14.0°C 78% 1.2 mph WSW1.9 kmh WSW 2.2 mph3.5 kmh 29.80 in1009.1 mb 0.00 in0.0 mm 0.00 in0.0 mm 0.11 in2.8 mm
04:20 AM 64.0°F17.8°C 57.2°F14.0°C 78% 1.1 mph SW1.8 kmh SW 2.9 mph4.7 kmh 29.80 in1009.1 mb 0.00 in0.0 mm 0.00 in0.0 mm 0.11 in2.8 mm
04:25 AM 64.0°F17.8°C 57.2°F14.0°C 78% 1.4 mph WSW2.3 kmh WSW 2.9 mph4.7 kmh 29.80 in1009.1 mb 0.00 in0.0 mm 0.00 in0.0 mm 0.11 in2.8 mm
04:30 AM 64.0°F17.8°C 57.2°F14.0°C 78% 1.0 mph SW1.6 kmh SW 2.5 mph4.0 kmh 29.80 in1009.1 mb 0.00 in0.0 mm 0.00 in0.0 mm 0.11 in2.8 mm
04:35 AM 63.9°F17.7°C 57.2°F14.0°C 78% 0.5 mph S0.8 kmh S 2.0 mph3.2 kmh 29.80 in1009.1 mb 0.00 in0.0 mm 0.00 in0.0 mm 0.11 in2.8 mm
04:40 AM 63.9°F17.7°C 57.2°F14.0°C 78% 0.7 mph SSW1.1 kmh SSW 2.0 mph3.2 kmh 29.80 in1009.1 mb 0.00 in0.0 mm 0.00 in0.0 mm 0.11 in2.8 mm
04:45 AM 63.7°F17.6°C 57.2°F14.0°C 78% 0.5 mph SSW0.8 kmh SSW 2.0 mph3.2 kmh 29.80 in1009.1 mb 0.00 in0.0 mm 0.00 in0.0 mm 0.11 in2.8 mm
04:50 AM 63.7°F17.6°C 57.2°F14.0°C 78% 0.3 mph SE0.5 kmh SE 1.1 mph1.8 kmh 29.80 in1009.1 mb 0.00 in0.0 mm 0.00 in0.0 mm 0.11 in2.8 mm
04:55 AM 63.7°F17.6°C 57.2°F14.0°C 79% 0.4 mph SSW0.6 kmh SSW 2.0 mph3.2 kmh 29.80 in1009.1 mb 0.00 in0.0 mm 0.00 in0.0 mm 0.11 in2.8 mm
05:00 AM 63.7°F17.6°C 57.2°F14.0°C 78% 0.4 mph SW0.6 kmh SW 2.0 mph3.2 kmh 29.80 in1009.1 mb 0.00 in0.0 mm 0.00 in0.0 mm 0.11 in2.8 mm
05:05 AM 63.5°F17.5°C 57.2°F14.0°C 79% 0.3 mph WSW0.5 kmh WSW 2.0 mph3.2 kmh 29.80 in1009.1 mb 0.00 in0.0 mm 0.00 in0.0 mm 0.11 in2.8 mm
05:10 AM 63.5°F17.5°C 57.2°F14.0°C 78% 0.3 mph W0.5 kmh W 2.0 mph3.2 kmh 29.80 in1009.1 mb 0.00 in0.0 mm 0.00 in0.0 mm 0.11 in2.8 mm
05:15 AM 63.5°F17.5°C 57.2°F14.0°C 78% 0.5 mph W0.8 kmh W 2.5 mph4.0 kmh 29.80 in1009.1 mb 0.00 in0.0 mm 0.00 in0.0 mm 0.11 in2.8 mm
05:20 AM 63.5°F17.5°C 57.2°F14.0°C 78% 1.2 mph WSW1.9 kmh WSW 2.5 mph4.0 kmh 29.80 in1009.1 mb 0.00 in0.0 mm 0.00 in0.0 mm 0.11 in2.8 mm
05:25 AM 63.3°F17.4°C 55.4°F13.0°C 78% 1.3 mph SW2.1 kmh SW 2.7 mph4.3 kmh 29.80 in1009.1 mb 0.00 in0.0 mm 0.00 in0.0 mm 0.11 in2.8 mm
05:30 AM 63.1°F17.3°C 55.4°F13.0°C 78% 1.5 mph WSW2.4 kmh WSW 2.7 mph4.3 kmh 29.80 in1009.1 mb 0.00 in0.0 mm 0.00 in0.0 mm 0.11 in2.8 mm
05:35 AM 63.1°F17.3°C 55.4°F13.0°C 78% 1.7 mph W2.7 kmh W 3.8 mph6.1 kmh 29.80 in1009.1 mb 0.00 in0.0 mm 0.00 in0.0 mm 0.11 in2.8 mm
05:40 AM 63.1°F17.3°C 55.4°F13.0°C 77% 1.7 mph W2.7 kmh W 3.8 mph6.1 kmh 29.80 in1009.1 mb 0.00 in0.0 mm 0.00 in0.0 mm 0.11 in2.8 mm
05:45 AM 63.0°F17.2°C 55.4°F13.0°C 78% 1.4 mph W2.3 kmh W 2.7 mph4.3 kmh 29.80 in1009.1 mb 0.00 in0.0 mm 0.00 in0.0 mm 0.11 in2.8 mm
05:50 AM 63.0°F17.2°C 55.4°F13.0°C 78% 1.1 mph SW1.8 kmh SW 2.7 mph4.3 kmh 29.80 in1009.1 mb 0.00 in0.0 mm 0.00 in0.0 mm 0.11 in2.8 mm
05:55 AM 63.0°F17.2°C 55.4°F13.0°C 78% 1.3 mph SW2.1 kmh SW 4.0 mph6.4 kmh 29.83 in1010.2 mb 0.00 in0.0 mm 0.00 in0.0 mm 0.11 in2.8 mm
06:00 AM 63.0°F17.2°C 55.4°F13.0°C 78% 1.1 mph SSW1.8 kmh SSW 4.0 mph6.4 kmh 29.83 in1010.2 mb 0.00 in0.0 mm 0.00 in0.0 mm 0.11 in2.8 mm
06:10 AM 63.0°F17.2°C 55.4°F13.0°C 78% 1.3 mph WSW2.1 kmh WSW 2.7 mph4.3 kmh 29.83 in1010.2 mb 0.00 in0.0 mm 0.00 in0.0 mm 0.11 in2.8 mm
06:15 AM 62.8°F17.1°C 55.4°F13.0°C 78% 1.3 mph WSW2.1 kmh WSW 2.7 mph4.3 kmh 29.83 in1010.2 mb 0.00 in0.0 mm 0.00 in0.0 mm 0.11 in2.8 mm
06:20 AM 62.8°F17.1°C 55.4°F13.0°C 78% 0.7 mph WSW1.1 kmh WSW 2.2 mph3.5 kmh 29.83 in1010.2 mb 0.00 in0.0 mm 0.00 in0.0 mm 0.11 in2.8 mm
06:25 AM 63.0°F17.2°C 57.2°F14.0°C 79% 0.1 mph W0.2 kmh W 1.1 mph1.8 kmh 29.80 in1009.1 mb 0.00 in0.0 mm 0.00 in0.0 mm 0.11 in2.8 mm
06:30 AM 62.8°F17.1°C 55.4°F13.0°C 78% 0.2 mph WSW0.3 kmh WSW 1.1 mph1.8 kmh 29.80 in1009.1 mb 0.00 in0.0 mm 0.00 in0.0 mm 0.11 in2.8 mm
06:35 AM 62.8°F17.1°C 55.4°F13.0°C 78% 1.0 mph SW1.6 kmh SW 2.5 mph4.0 kmh 29.80 in1009.1 mb 0.00 in0.0 mm 0.00 in0.0 mm 0.11 in2.8 mm
06:40 AM 62.8°F17.1°C 55.4°F13.0°C 78% 1.3 mph SW2.1 kmh SW 2.7 mph4.3 kmh 29.80 in1009.1 mb 0.00 in0.0 mm 0.00 in0.0 mm 0.11 in2.8 mm
06:45 AM 62.8°F17.1°C 55.4°F13.0°C 78% 0.7 mph SW1.1 kmh SW 2.7 mph4.3 kmh 29.80 in1009.1 mb 0.00 in0.0 mm 0.00 in0.0 mm 0.11 in2.8 mm
06:50 AM 62.8°F17.1°C 55.4°F13.0°C 78% 0.2 mph W0.3 kmh W 1.3 mph2.1 kmh 29.80 in1009.1 mb 0.00 in0.0 mm 0.00 in0.0 mm 0.11 in2.8 mm
06:55 AM 62.8°F17.1°C 55.4°F13.0°C 79% 0.6 mph S1.0 kmh S 2.2 mph3.5 kmh 29.77 in1008.1 mb 0.00 in0.0 mm 0.00 in0.0 mm 0.11 in2.8 mm
07:00 AM 63.0°F17.2°C 57.2°F14.0°C 79% 0.9 mph SSW1.4 kmh SSW 3.1 mph5.0 kmh 29.77 in1008.1 mb 0.00 in0.0 mm 0.00 in0.0 mm 0.11 in2.8 mm
07:05 AM 63.0°F17.2°C 55.4°F13.0°C 78% 1.0 mph SSW1.6 kmh SSW 3.1 mph5.0 kmh 29.77 in1008.1 mb 0.00 in0.0 mm 0.00 in0.0 mm 0.11 in2.8 mm
07:10 AM 63.0°F17.2°C 57.2°F14.0°C 79% 1.2 mph S1.9 kmh S 2.5 mph4.0 kmh 29.77 in1008.1 mb 0.00 in0.0 mm 0.00 in0.0 mm 0.11 in2.8 mm
07:15 AM 63.1°F17.3°C 55.4°F13.0°C 78% 1.2 mph S1.9 kmh S 2.5 mph4.0 kmh 29.77 in1008.1 mb 0.00 in0.0 mm 0.00 in0.0 mm 0.11 in2.8 mm
07:20 AM 63.1°F17.3°C 55.4°F13.0°C 78% 1.4 mph SSW2.3 kmh SSW 3.4 mph5.5 kmh 29.77 in1008.1 mb 0.00 in0.0 mm 0.00 in0.0 mm 0.11 in2.8 mm
07:25 AM 63.3°F17.4°C 55.4°F13.0°C 78% 1.8 mph SW2.9 kmh SW 3.8 mph6.1 kmh 29.77 in1008.1 mb 0.00 in0.0 mm 0.00 in0.0 mm 0.11 in2.8 mm
07:30 AM 63.5°F17.5°C 57.2°F14.0°C 78% 2.4 mph SW3.9 kmh SW 4.0 mph6.4 kmh 29.77 in1008.1 mb 0.00 in0.0 mm 0.00 in0.0 mm 0.11 in2.8 mm
07:35 AM 63.5°F17.5°C 57.2°F14.0°C 78% 3.1 mph SSW5.0 kmh SSW 5.6 mph9.0 kmh 29.77 in1008.1 mb 0.00 in0.0 mm 0.00 in0.0 mm 0.11 in2.8 mm
07:40 AM 63.5°F17.5°C 57.2°F14.0°C 78% 2.9 mph S4.7 kmh S 5.6 mph9.0 kmh 29.77 in1008.1 mb 0.00 in0.0 mm 0.00 in0.0 mm 0.11 in2.8 mm
07:45 AM 63.5°F17.5°C 57.2°F14.0°C 78% 2.6 mph S4.2 kmh S 4.3 mph6.9 kmh 29.77 in1008.1 mb 0.00 in0.0 mm 0.00 in0.0 mm 0.11 in2.8 mm
07:50 AM 63.5°F17.5°C 57.2°F14.0°C 78% 2.4 mph S3.9 kmh S 4.3 mph6.9 kmh 29.77 in1008.1 mb 0.00 in0.0 mm 0.00 in0.0 mm 0.11 in2.8 mm
07:55 AM 64.0°F17.8°C 57.2°F14.0°C 78% 1.5 mph SSW2.4 kmh SSW 3.1 mph5.0 kmh 29.77 in1008.1 mb 0.00 in0.0 mm 0.00 in0.0 mm 0.11 in2.8 mm
08:00 AM 64.8°F18.2°C 57.2°F14.0°C 78% 1.3 mph SSW2.1 kmh SSW 2.2 mph3.5 kmh 29.77 in1008.1 mb 0.00 in0.0 mm 0.00 in0.0 mm 0.11 in2.8 mm
08:05 AM 64.8°F18.2°C 57.2°F14.0°C 77% 1.9 mph SW3.1 kmh SW 3.4 mph5.5 kmh 29.77 in1008.1 mb 0.00 in0.0 mm 0.00 in0.0 mm 0.11 in2.8 mm
08:10 AM 64.8°F18.2°C 57.2°F14.0°C 77% 2.0 mph SSW3.2 kmh SSW 3.6 mph5.8 kmh 29.77 in1008.1 mb 0.00 in0.0 mm 0.00 in0.0 mm 0.11 in2.8 mm
08:15 AM 64.8°F18.2°C 57.2°F14.0°C 78% 2.2 mph S3.5 kmh S 4.0 mph6.4 kmh 29.77 in1008.1 mb 0.00 in0.0 mm 0.00 in0.0 mm 0.11 in2.8 mm
08:20 AM 64.9°F18.3°C 57.2°F14.0°C 78% 2.1 mph S3.4 kmh S 4.0 mph6.4 kmh 29.77 in1008.1 mb 0.00 in0.0 mm 0.00 in0.0 mm 0.11 in2.8 mm
08:25 AM 65.5°F18.6°C 59.0°F15.0°C 77% 1.9 mph SSW3.1 kmh SSW 3.8 mph6.1 kmh 29.77 in1008.1 mb 0.00 in0.0 mm 0.00 in0.0 mm 0.11 in2.8 mm
08:30 AM 65.5°F18.6°C 59.0°F15.0°C 77% 2.8 mph SW4.5 kmh SW 4.5 mph7.2 kmh 29.77 in1008.1 mb 0.00 in0.0 mm 0.00 in0.0 mm 0.11 in2.8 mm
08:35 AM 65.8°F18.8°C 57.2°F14.0°C 76% 3.4 mph SSW5.5 kmh SSW 5.4 mph8.7 kmh 29.77 in1008.1 mb 0.00 in0.0 mm 0.00 in0.0 mm 0.11 in2.8 mm
08:40 AM 66.0°F18.9°C 59.0°F15.0°C 77% 2.9 mph SSW4.7 kmh SSW 5.4 mph8.7 kmh 29.77 in1008.1 mb 0.00 in0.0 mm 0.00 in0.0 mm 0.11 in2.8 mm
08:45 AM 66.6°F19.2°C 59.0°F15.0°C 76% 2.7 mph S4.3 kmh S 4.9 mph7.9 kmh 29.77 in1008.1 mb 0.00 in0.0 mm 0.00 in0.0 mm 0.11 in2.8 mm
08:50 AM 66.2°F19.0°C 57.2°F14.0°C 74% 2.7 mph S4.3 kmh S 4.9 mph7.9 kmh 29.77 in1008.1 mb 0.00 in0.0 mm 0.00 in0.0 mm 0.11 in2.8 mm
08:55 AM 66.2°F19.0°C 57.2°F14.0°C 74% 3.4 mph SSW5.5 kmh SSW 7.4 mph11.9 kmh 29.77 in1008.1 mb 0.00 in0.0 mm 0.00 in0.0 mm 0.11 in2.8 mm
09:00 AM 66.0°F18.9°C 59.0°F15.0°C 75% 4.0 mph SSW6.4 kmh SSW 7.4 mph11.9 kmh 29.77 in1008.1 mb 0.00 in0.0 mm 0.00 in0.0 mm 0.11 in2.8 mm
09:05 AM 66.2°F19.0°C 57.2°F14.0°C 74% 3.5 mph S5.6 kmh S 4.9 mph7.9 kmh 29.77 in1008.1 mb 0.00 in0.0 mm 0.00 in0.0 mm 0.11 in2.8 mm
09:10 AM 66.7°F19.3°C 57.2°F14.0°C 73% 3.4 mph S5.5 kmh S 5.6 mph9.0 kmh 29.77 in1008.1 mb 0.00 in0.0 mm 0.00 in0.0 mm 0.11 in2.8 mm
09:15 AM 67.1°F19.5°C 59.0°F15.0°C 73% 3.6 mph SSW5.8 kmh SSW 5.6 mph9.0 kmh 29.77 in1008.1 mb 0.00 in0.0 mm 0.00 in0.0 mm 0.11 in2.8 mm
09:20 AM 66.7°F19.3°C 57.2°F14.0°C 72% 4.3 mph S6.9 kmh S 8.7 mph14.0 kmh 29.77 in1008.1 mb 0.00 in0.0 mm 0.00 in0.0 mm 0.11 in2.8 mm
09:25 AM 66.7°F19.3°C 57.2°F14.0°C 72% 4.8 mph S7.7 kmh S 8.7 mph14.0 kmh 29.77 in1008.1 mb 0.00 in0.0 mm 0.00 in0.0 mm 0.11 in2.8 mm
09:30 AM 67.6°F19.8°C 57.2°F14.0°C 71% 4.5 mph S7.2 kmh S 7.6 mph12.2 kmh 29.77 in1008.1 mb 0.00 in0.0 mm 0.00 in0.0 mm 0.11 in2.8 mm
09:35 AM 67.6°F19.8°C 57.2°F14.0°C 71% 4.9 mph SSW7.9 kmh SSW 7.6 mph12.2 kmh 29.77 in1008.1 mb 0.00 in0.0 mm 0.00 in0.0 mm 0.11 in2.8 mm
09:40 AM 67.6°F19.8°C 57.2°F14.0°C 71% 4.2 mph SSW6.8 kmh SSW 6.5 mph10.5 kmh 29.77 in1008.1 mb 0.00 in0.0 mm 0.00 in0.0 mm 0.11 in2.8 mm
09:45 AM 68.2°F20.1°C 57.2°F14.0°C 70% 2.8 mph S4.5 kmh S 4.9 mph7.9 kmh 29.77 in1008.1 mb 0.00 in0.0 mm 0.00 in0.0 mm 0.11 in2.8 mm
09:50 AM 68.5°F20.3°C 57.2°F14.0°C 69% 3.4 mph SW5.5 kmh SW 6.5 mph10.5 kmh 29.77 in1008.1 mb 0.00 in0.0 mm 0.00 in0.0 mm 0.11 in2.8 mm
09:55 AM 70.5°F21.4°C 59.0°F15.0°C 69% 4.6 mph SSW7.4 kmh SSW 8.1 mph13.0 kmh 29.80 in1009.1 mb 0.00 in0.0 mm 0.00 in0.0 mm 0.11 in2.8 mm
10:00 AM 68.4°F20.2°C 57.2°F14.0°C 69% 4.5 mph S7.2 kmh S 8.1 mph13.0 kmh 29.80 in1009.1 mb 0.00 in0.0 mm 0.00 in0.0 mm 0.11 in2.8 mm
10:05 AM 68.2°F20.1°C 57.2°F14.0°C 70% 3.4 mph SSW5.5 kmh SSW 8.1 mph13.0 kmh 29.80 in1009.1 mb 0.00 in0.0 mm 0.00 in0.0 mm 0.11 in2.8 mm
10:10 AM 68.5°F20.3°C 59.0°F15.0°C 70% 2.4 mph SW3.9 kmh SW 4.3 mph6.9 kmh 29.80 in1009.1 mb 0.00 in0.0 mm 0.00 in0.0 mm 0.11 in2.8 mm
10:15 AM 68.7°F20.4°C 57.2°F14.0°C 69% 2.5 mph SW4.0 kmh SW 4.3 mph6.9 kmh 29.80 in1009.1 mb 0.00 in0.0 mm 0.00 in0.0 mm 0.11 in2.8 mm
10:20 AM 69.8°F21.0°C 59.0°F15.0°C 68% 4.0 mph SW6.4 kmh SW 10.5 mph16.9 kmh 29.80 in1009.1 mb 0.00 in0.0 mm 0.00 in0.0 mm 0.11 in2.8 mm
10:25 AM 70.5°F21.4°C 59.0°F15.0°C 67% 4.8 mph SW7.7 kmh SW 10.5 mph16.9 kmh 29.77 in1008.1 mb 0.00 in0.0 mm 0.00 in0.0 mm 0.11 in2.8 mm
10:30 AM 70.5°F21.4°C 59.0°F15.0°C 67% 4.1 mph SW6.6 kmh SW 8.5 mph13.7 kmh 29.77 in1008.1 mb 0.00 in0.0 mm 0.00 in0.0 mm 0.11 in2.8 mm
10:35 AM 70.5°F21.4°C 59.0°F15.0°C 67% 3.8 mph SSW6.1 kmh SSW 6.0 mph9.7 kmh 29.77 in1008.1 mb 0.00 in0.0 mm 0.00 in0.0 mm 0.11 in2.8 mm
10:40 AM 70.2°F21.2°C 59.0°F15.0°C 67% 4.8 mph SSW7.7 kmh SSW 9.6 mph15.4 kmh 29.80 in1009.1 mb 0.00 in0.0 mm 0.00 in0.0 mm 0.11 in2.8 mm
10:45 AM 69.4°F20.8°C 57.2°F14.0°C 67% 5.3 mph S8.5 kmh S 9.6 mph15.4 kmh 29.80 in1009.1 mb 0.00 in0.0 mm 0.00 in0.0 mm 0.11 in2.8 mm
10:50 AM 69.1°F20.6°C 57.2°F14.0°C 67% 4.0 mph S6.4 kmh S 7.8 mph12.6 kmh 29.80 in1009.1 mb 0.00 in0.0 mm 0.00 in0.0 mm 0.11 in2.8 mm
10:55 AM 68.5°F20.3°C 57.2°F14.0°C 67% 3.5 mph SSW5.6 kmh SSW 6.3 mph10.1 kmh 29.80 in1009.1 mb 0.00 in0.0 mm 0.00 in0.0 mm 0.11 in2.8 mm
11:00 AM 68.5°F20.3°C 57.2°F14.0°C 68% 3.3 mph SSW5.3 kmh SSW 6.3 mph10.1 kmh 29.80 in1009.1 mb 0.00 in0.0 mm 0.00 in0.0 mm 0.11 in2.8 mm
11:05 AM 68.4°F20.2°C 57.2°F14.0°C 68% 3.0 mph SSW4.8 kmh SSW 7.4 mph11.9 kmh 29.80 in1009.1 mb 0.00 in0.0 mm 0.00 in0.0 mm 0.11 in2.8 mm
11:10 AM 68.2°F20.1°C 57.2°F14.0°C 68% 3.1 mph SW5.0 kmh SW 7.4 mph11.9 kmh 29.80 in1009.1 mb 0.00 in0.0 mm 0.00 in0.0 mm 0.11 in2.8 mm
11:15 AM 68.2°F20.1°C 57.2°F14.0°C 68% 4.0 mph SW6.4 kmh SW 7.4 mph11.9 kmh 29.80 in1009.1 mb 0.00 in0.0 mm 0.00 in0.0 mm 0.11 in2.8 mm
11:20 AM 68.2°F20.1°C 57.2°F14.0°C 68% 2.5 mph SW4.0 kmh SW 7.4 mph11.9 kmh 29.80 in1009.1 mb 0.00 in0.0 mm 0.00 in0.0 mm 0.11 in2.8 mm
11:25 AM 68.2°F20.1°C 57.2°F14.0°C 68% 2.2 mph S3.5 kmh S 6.5 mph10.5 kmh 29.80 in1009.1 mb 0.00 in0.0 mm 0.00 in0.0 mm 0.11 in2.8 mm
11:30 AM 68.4°F20.2°C 57.2°F14.0°C 68% 2.8 mph SSW4.5 kmh SSW 6.5 mph10.5 kmh 29.80 in1009.1 mb 0.00 in0.0 mm 0.00 in0.0 mm 0.11 in2.8 mm
11:35 AM 68.4°F20.2°C 57.2°F14.0°C 68% 2.8 mph SW4.5 kmh SW 5.4 mph8.7 kmh 29.80 in1009.1 mb 0.00 in0.0 mm 0.00 in0.0 mm 0.11 in2.8 mm
11:40 AM 68.2°F20.1°C 57.2°F14.0°C 67% 3.7 mph SW6.0 kmh SW 6.0 mph9.7 kmh 29.80 in1009.1 mb 0.00 in0.0 mm 0.00 in0.0 mm 0.11 in2.8 mm
11:45 AM 68.0°F20.0°C 57.2°F14.0°C 68% 2.9 mph SW4.7 kmh SW 6.0 mph9.7 kmh 29.80 in1009.1 mb 0.00 in0.0 mm 0.00 in0.0 mm 0.11 in2.8 mm
11:50 AM 68.0°F20.0°C 57.2°F14.0°C 68% 2.5 mph SW4.0 kmh SW 5.6 mph9.0 kmh 29.80 in1009.1 mb 0.00 in0.0 mm 0.00 in0.0 mm 0.11 in2.8 mm
11:55 AM 67.8°F19.9°C 57.2°F14.0°C 69% 3.1 mph SW5.0 kmh SW 5.8 mph9.3 kmh 29.80 in1009.1 mb 0.00 in0.0 mm 0.00 in0.0 mm 0.11 in2.8 mm
12:00 PM 67.8°F19.9°C 57.2°F14.0°C 69% 3.1 mph SSW5.0 kmh SSW 5.8 mph9.3 kmh 29.80 in1009.1 mb 0.00 in0.0 mm 0.00 in0.0 mm 0.11 in2.8 mm
12:05 PM 68.0°F20.0°C 57.2°F14.0°C 68% 2.8 mph SW4.5 kmh SW 4.3 mph6.9 kmh 29.80 in1009.1 mb 0.00 in0.0 mm 0.00 in0.0 mm 0.11 in2.8 mm
12:10 PM 68.0°F20.0°C 57.2°F14.0°C 68% 2.7 mph SW4.3 kmh SW 3.6 mph5.8 kmh 29.80 in1009.1 mb 0.00 in0.0 mm 0.00 in0.0 mm 0.11 in2.8 mm
12:15 PM 68.0°F20.0°C 57.2°F14.0°C 68% 3.1 mph SW5.0 kmh SW 5.6 mph9.0 kmh 29.80 in1009.1 mb 0.00 in0.0 mm 0.00 in0.0 mm 0.11 in2.8 mm
12:20 PM 67.8°F19.9°C 57.2°F14.0°C 69% 3.8 mph SW6.1 kmh SW 6.9 mph11.1 kmh 29.80 in1009.1 mb 0.00 in0.0 mm 0.00 in0.0 mm 0.11 in2.8 mm
12:25 PM 67.8°F19.9°C 57.2°F14.0°C 69% 3.9 mph SW6.3 kmh SW 6.9 mph11.1 kmh 29.80 in1009.1 mb 0.00 in0.0 mm 0.00 in0.0 mm 0.11 in2.8 mm
12:30 PM 67.5°F19.7°C 57.2°F14.0°C 69% 4.9 mph WSW7.9 kmh WSW 9.8 mph15.8 kmh 29.80 in1009.1 mb 0.00 in0.0 mm 0.00 in0.0 mm 0.11 in2.8 mm
12:35 PM 67.1°F19.5°C 57.2°F14.0°C 69% 4.9 mph WSW7.9 kmh WSW 9.8 mph15.8 kmh 29.80 in1009.1 mb 0.00 in0.0 mm 0.00 in0.0 mm 0.11 in2.8 mm
12:40 PM 67.1°F19.5°C 57.2°F14.0°C 69% 4.1 mph SW6.6 kmh SW 9.8 mph15.8 kmh 29.80 in1009.1 mb 0.00 in0.0 mm 0.00 in0.0 mm 0.11 in2.8 mm
12:45 PM 66.7°F19.3°C 55.4°F13.0°C 69% 4.2 mph SW6.8 kmh SW 10.7 mph17.2 kmh 29.80 in1009.1 mb 0.00 in0.0 mm 0.00 in0.0 mm 0.11 in2.8 mm
12:50 PM 66.6°F19.2°C 57.2°F14.0°C 70% 4.5 mph WSW7.2 kmh WSW 10.7 mph17.2 kmh 29.80 in1009.1 mb 0.00 in0.0 mm 0.00 in0.0 mm 0.11 in2.8 mm
12:55 PM 66.0°F18.9°C 57.2°F14.0°C 72% 4.5 mph WSW7.2 kmh WSW 7.6 mph12.2 kmh 29.80 in1009.1 mb 0.00 in0.0 mm 0.00 in0.0 mm 0.11 in2.8 mm
01:00 PM 65.7°F18.7°C 57.2°F14.0°C 72% 5.9 mph WSW9.5 kmh WSW 10.1 mph16.3 kmh 29.80 in1009.1 mb 0.00 in0.0 mm 0.00 in0.0 mm 0.11 in2.8 mm
01:05 PM 65.5°F18.6°C 57.2°F14.0°C 72% 5.8 mph WSW9.3 kmh WSW 10.1 mph16.3 kmh 29.80 in1009.1 mb 0.00 in0.0 mm 0.00 in0.0 mm 0.11 in2.8 mm
01:10 PM 65.1°F18.4°C 55.4°F13.0°C 73% 5.3 mph WSW8.5 kmh WSW 8.1 mph13.0 kmh 29.80 in1009.1 mb 0.00 in0.0 mm 0.00 in0.0 mm 0.11 in2.8 mm
01:15 PM 65.1°F18.4°C 55.4°F13.0°C 73% 4.2 mph WSW6.8 kmh WSW 8.1 mph13.0 kmh 29.80 in1009.1 mb 0.00 in0.0 mm 0.00 in0.0 mm 0.11 in2.8 mm
01:20 PM 64.6°F18.1°C 55.4°F13.0°C 73% 3.8 mph W6.1 kmh W 8.5 mph13.7 kmh 29.80 in1009.1 mb 0.00 in0.0 mm 0.00 in0.0 mm 0.11 in2.8 mm
01:25 PM 64.2°F17.9°C 55.4°F13.0°C 73% 4.0 mph WSW6.4 kmh WSW 8.5 mph13.7 kmh 29.80 in1009.1 mb 0.07 in1.8 mm 0.84 in21.3 mm 0.18 in4.6 mm
01:30 PM 64.2°F17.9°C 55.4°F13.0°C 74% 3.6 mph WSW5.8 kmh WSW 5.6 mph9.0 kmh 29.80 in1009.1 mb 0.07 in1.8 mm 0.00 in0.0 mm 0.18 in4.6 mm
01:35 PM 64.0°F17.8°C 55.4°F13.0°C 73% 4.2 mph WSW6.8 kmh WSW 7.6 mph12.2 kmh 29.80 in1009.1 mb 0.07 in1.8 mm 0.00 in0.0 mm 0.18 in4.6 mm
01:40 PM 64.0°F17.8°C 55.4°F13.0°C 74% 4.8 mph WSW7.7 kmh WSW 7.6 mph12.2 kmh 29.80 in1009.1 mb 0.07 in1.8 mm 0.00 in0.0 mm 0.18 in4.6 mm
01:45 PM 65.1°F18.4°C 57.2°F14.0°C 75% 3.3 mph SW5.3 kmh SW 7.2 mph11.6 kmh 29.80 in1009.1 mb 0.07 in1.8 mm 0.00 in0.0 mm 0.18 in4.6 mm
01:50 PM 65.5°F18.6°C 57.2°F14.0°C 75% 3.3 mph WSW5.3 kmh WSW 6.0 mph9.7 kmh 29.80 in1009.1 mb 0.07 in1.8 mm 0.00 in0.0 mm 0.18 in4.6 mm
01:55 PM 64.9°F18.3°C 57.2°F14.0°C 74% 3.8 mph WSW6.1 kmh WSW 6.0 mph9.7 kmh 29.80 in1009.1 mb 0.07 in1.8 mm 0.00 in0.0 mm 0.18 in4.6 mm
02:00 PM 64.8°F18.2°C 57.2°F14.0°C 74% 3.8 mph SW6.1 kmh SW 8.7 mph14.0 kmh 29.80 in1009.1 mb 0.07 in1.8 mm 0.00 in0.0 mm 0.18 in4.6 mm
02:05 PM 64.6°F18.1°C 55.4°F13.0°C 74% 3.8 mph SW6.1 kmh SW 8.7 mph14.0 kmh 29.80 in1009.1 mb 0.07 in1.8 mm 0.00 in0.0 mm 0.18 in4.6 mm
02:10 PM 64.4°F18.0°C 55.4°F13.0°C 74% 3.2 mph SW5.1 kmh SW 6.0 mph9.7 kmh 29.80 in1009.1 mb 0.07 in1.8 mm 0.00 in0.0 mm 0.18 in4.6 mm
02:15 PM 64.4°F18.0°C 57.2°F14.0°C 75% 3.1 mph SSW5.0 kmh SSW 4.0 mph6.4 kmh 29.80 in1009.1 mb 0.07 in1.8 mm 0.00 in0.0 mm 0.18 in4.6 mm
02:20 PM 64.6°F18.1°C 57.2°F14.0°C 75% 2.9 mph SW4.7 kmh SW 4.0 mph6.4 kmh 29.80 in1009.1 mb 0.07 in1.8 mm 0.00 in0.0 mm 0.18 in4.6 mm
02:25 PM 64.6°F18.1°C 57.2°F14.0°C 75% 3.2 mph WSW5.1 kmh WSW 5.4 mph8.7 kmh 29.80 in1009.1 mb 0.00 in0.0 mm 0.00 in0.0 mm 0.18 in4.6 mm
02:30 PM 64.8°F18.2°C 57.2°F14.0°C 76% 3.4 mph WSW5.5 kmh WSW 5.4 mph8.7 kmh 29.80 in1009.1 mb 0.00 in0.0 mm 0.00 in0.0 mm 0.18 in4.6 mm
02:35 PM 64.4°F18.0°C 57.2°F14.0°C 75% 3.0 mph WSW4.8 kmh WSW 5.4 mph8.7 kmh 29.80 in1009.1 mb 0.00 in0.0 mm 0.00 in0.0 mm 0.18 in4.6 mm
02:40 PM 64.0°F17.8°C 55.4°F13.0°C 74% 4.6 mph WSW7.4 kmh WSW 11.0 mph17.7 kmh 29.80 in1009.1 mb 0.00 in0.0 mm 0.00 in0.0 mm 0.18 in4.6 mm
02:45 PM 63.3°F17.4°C 55.4°F13.0°C 74% 6.5 mph W10.5 kmh W 11.0 mph17.7 kmh 29.80 in1009.1 mb 0.00 in0.0 mm 0.00 in0.0 mm 0.18 in4.6 mm
02:50 PM 63.0°F17.2°C 55.4°F13.0°C 74% 6.5 mph WNW10.5 kmh WNW 10.3 mph16.6 kmh 29.80 in1009.1 mb 0.00 in0.0 mm 0.00 in0.0 mm 0.18 in4.6 mm
02:55 PM 62.6°F17.0°C 55.4°F13.0°C 74% 6.1 mph W9.8 kmh W 10.3 mph16.6 kmh 29.80 in1009.1 mb 0.00 in0.0 mm 0.00 in0.0 mm 0.18 in4.6 mm
03:00 PM 62.6°F17.0°C 55.4°F13.0°C 74% 6.3 mph W10.1 kmh W 10.3 mph16.6 kmh 29.80 in1009.1 mb 0.00 in0.0 mm 0.00 in0.0 mm 0.18 in4.6 mm
03:05 PM 62.2°F16.8°C 55.4°F13.0°C 75% 5.0 mph W8.0 kmh W 8.7 mph14.0 kmh 29.80 in1009.1 mb 0.00 in0.0 mm 0.00 in0.0 mm 0.18 in4.6 mm
03:10 PM 62.2°F16.8°C 55.4°F13.0°C 75% 4.1 mph W6.6 kmh W 8.7 mph14.0 kmh 29.80 in1009.1 mb 0.00 in0.0 mm 0.00 in0.0 mm 0.18 in4.6 mm
03:15 PM 62.1°F16.7°C 55.4°F13.0°C 75% 4.5 mph WSW7.2 kmh WSW 8.7 mph14.0 kmh 29.80 in1009.1 mb 0.00 in0.0 mm 0.00 in0.0 mm 0.18 in4.6 mm
03:20 PM 61.9°F16.6°C 55.4°F13.0°C 75% 5.3 mph WSW8.5 kmh WSW 8.7 mph14.0 kmh 29.80 in1009.1 mb 0.00 in0.0 mm 0.00 in0.0 mm 0.18 in4.6 mm
03:25 PM 61.7°F16.5°C 55.4°F13.0°C 75% 5.5 mph WSW8.9 kmh WSW 7.6 mph12.2 kmh 29.83 in1010.2 mb 0.00 in0.0 mm 0.00 in0.0 mm 0.18 in4.6 mm
03:30 PM 61.9°F16.6°C 55.4°F13.0°C 75% 4.5 mph WSW7.2 kmh WSW 6.5 mph10.5 kmh 29.83 in1010.2 mb 0.00 in0.0 mm 0.00 in0.0 mm 0.18 in4.6 mm
03:35 PM 61.9°F16.6°C 55.4°F13.0°C 75% 4.2 mph WSW6.8 kmh WSW 7.8 mph12.6 kmh 29.83 in1010.2 mb 0.00 in0.0 mm 0.00 in0.0 mm 0.18 in4.6 mm
03:40 PM 61.7°F16.5°C 55.4°F13.0°C 75% 5.5 mph WSW8.9 kmh WSW 7.8 mph12.6 kmh 29.83 in1010.2 mb 0.00 in0.0 mm 0.00 in0.0 mm 0.18 in4.6 mm
03:45 PM 61.7°F16.5°C 55.4°F13.0°C 75% 5.9 mph WSW9.5 kmh WSW 7.4 mph11.9 kmh 29.83 in1010.2 mb 0.00 in0.0 mm 0.00 in0.0 mm 0.18 in4.6 mm
03:50 PM 61.9°F16.6°C 55.4°F13.0°C 75% 5.4 mph WSW8.7 kmh WSW 8.5 mph13.7 kmh 29.83 in1010.2 mb 0.00 in0.0 mm 0.00 in0.0 mm 0.18 in4.6 mm
03:55 PM 61.7°F16.5°C 55.4°F13.0°C 75% 5.9 mph WSW9.5 kmh WSW 8.5 mph13.7 kmh 29.83 in1010.2 mb 0.00 in0.0 mm 0.00 in0.0 mm 0.18 in4.6 mm
04:00 PM 61.5°F16.4°C 53.6°F12.0°C 75% 6.9 mph WSW11.1 kmh WSW 10.3 mph16.6 kmh 29.83 in1010.2 mb 0.00 in0.0 mm 0.00 in0.0 mm 0.18 in4.6 mm
04:05 PM 61.2°F16.2°C 53.6°F12.0°C 75% 6.7 mph WSW10.8 kmh WSW 10.7 mph17.2 kmh 29.83 in1010.2 mb 0.00 in0.0 mm 0.00 in0.0 mm 0.18 in4.6 mm
04:10 PM 61.2°F16.2°C 53.6°F12.0°C 75% 5.6 mph WSW9.0 kmh WSW 10.7 mph17.2 kmh 29.83 in1010.2 mb 0.00 in0.0 mm 0.00 in0.0 mm 0.18 in4.6 mm
04:15 PM 61.0°F16.1°C 53.6°F12.0°C 75% 4.5 mph WSW7.2 kmh WSW 7.8 mph12.6 kmh 29.83 in1010.2 mb 0.00 in0.0 mm 0.00 in0.0 mm 0.18 in4.6 mm
04:20 PM 60.8°F16.0°C 53.6°F12.0°C 75% 4.1 mph WSW6.6 kmh WSW 6.5 mph10.5 kmh 29.83 in1010.2 mb 0.00 in0.0 mm 0.00 in0.0 mm 0.18 in4.6 mm
04:25 PM 60.8°F16.0°C 53.6°F12.0°C 75% 3.9 mph WSW6.3 kmh WSW 6.5 mph10.5 kmh 29.83 in1010.2 mb 0.00 in0.0 mm 0.00 in0.0 mm 0.18 in4.6 mm
04:30 PM 61.0°F16.1°C 53.6°F12.0°C 75% 4.4 mph SW7.1 kmh SW 7.2 mph11.6 kmh 29.83 in1010.2 mb 0.00 in0.0 mm 0.00 in0.0 mm 0.18 in4.6 mm
04:35 PM 61.0°F16.1°C 53.6°F12.0°C 76% 3.3 mph SW5.3 kmh SW 7.2 mph11.6 kmh 29.83 in1010.2 mb 0.00 in0.0 mm 0.00 in0.0 mm 0.18 in4.6 mm
04:40 PM 60.8°F16.0°C 53.6°F12.0°C 76% 1.9 mph WSW3.1 kmh WSW 4.0 mph6.4 kmh 29.83 in1010.2 mb 0.00 in0.0 mm 0.00 in0.0 mm 0.18 in4.6 mm
04:45 PM 60.8°F16.0°C 53.6°F12.0°C 76% 1.8 mph SW2.9 kmh SW 4.0 mph6.4 kmh 29.83 in1010.2 mb 0.00 in0.0 mm 0.00 in0.0 mm 0.18 in4.6 mm
04:50 PM 60.8°F16.0°C 53.6°F12.0°C 76% 2.0 mph SW3.2 kmh SW 3.4 mph5.5 kmh 29.83 in1010.2 mb 0.00 in0.0 mm 0.00 in0.0 mm 0.18 in4.6 mm
04:55 PM 60.6°F15.9°C 53.6°F12.0°C 75% 3.4 mph WSW5.5 kmh WSW 5.8 mph9.3 kmh 29.83 in1010.2 mb 0.00 in0.0 mm 0.00 in0.0 mm 0.18 in4.6 mm
05:00 PM 60.4°F15.8°C 53.6°F12.0°C 75% 4.1 mph WSW6.6 kmh WSW 5.8 mph9.3 kmh 29.83 in1010.2 mb 0.00 in0.0 mm 0.00 in0.0 mm 0.18 in4.6 mm
05:05 PM 60.3°F15.7°C 53.6°F12.0°C 75% 4.4 mph W7.1 kmh W 6.5 mph10.5 kmh 29.83 in1010.2 mb 0.00 in0.0 mm 0.00 in0.0 mm 0.18 in4.6 mm
05:10 PM 60.1°F15.6°C 51.8°F11.0°C 74% 4.8 mph WSW7.7 kmh WSW 7.6 mph12.2 kmh 29.83 in1010.2 mb 0.00 in0.0 mm 0.00 in0.0 mm 0.18 in4.6 mm
05:15 PM 60.1°F15.6°C 53.6°F12.0°C 75% 4.1 mph WSW6.6 kmh WSW 7.6 mph12.2 kmh 29.83 in1010.2 mb 0.00 in0.0 mm 0.00 in0.0 mm 0.18 in4.6 mm
05:20 PM 60.1°F15.6°C 53.6°F12.0°C 75% 3.3 mph WSW5.3 kmh WSW 6.7 mph10.8 kmh 29.83 in1010.2 mb 0.00 in0.0 mm 0.00 in0.0 mm 0.18 in4.6 mm
05:25 PM 60.1°F15.6°C 53.6°F12.0°C 75% 2.5 mph W4.0 kmh W 4.9 mph7.9 kmh 29.83 in1010.2 mb 0.00 in0.0 mm 0.00 in0.0 mm 0.18 in4.6 mm
05:30 PM 60.3°F15.7°C 53.6°F12.0°C 76% 1.3 mph W2.1 kmh W 4.3 mph6.9 kmh 29.83 in1010.2 mb 0.00 in0.0 mm 0.00 in0.0 mm 0.18 in4.6 mm
05:35 PM 60.3°F15.7°C 53.6°F12.0°C 76% 1.0 mph WSW1.6 kmh WSW 3.1 mph5.0 kmh 29.83 in1010.2 mb 0.00 in0.0 mm 0.00 in0.0 mm 0.18 in4.6 mm
05:40 PM 60.3°F15.7°C 53.6°F12.0°C 76% 1.6 mph SW2.6 kmh SW 3.8 mph6.1 kmh 29.83 in1010.2 mb 0.00 in0.0 mm 0.00 in0.0 mm 0.18 in4.6 mm
05:45 PM 60.1°F15.6°C 53.6°F12.0°C 76% 1.6 mph SW2.6 kmh SW 3.8 mph6.1 kmh 29.83 in1010.2 mb 0.00 in0.0 mm 0.00 in0.0 mm 0.18 in4.6 mm
05:50 PM 60.1°F15.6°C 53.6°F12.0°C 76% 1.1 mph SSW1.8 kmh SSW 3.1 mph5.0 kmh 29.83 in1010.2 mb 0.00 in0.0 mm 0.00 in0.0 mm 0.18 in4.6 mm
05:55 PM 60.1°F15.6°C 53.6°F12.0°C 76% 1.7 mph SW2.7 kmh SW 3.6 mph5.8 kmh 29.83 in1010.2 mb 0.00 in0.0 mm 0.00 in0.0 mm 0.18 in4.6 mm
06:00 PM 59.9°F15.5°C 53.6°F12.0°C 76% 1.9 mph SW3.1 kmh SW 3.6 mph5.8 kmh 29.83 in1010.2 mb 0.00 in0.0 mm 0.00 in0.0 mm 0.18 in4.6 mm
06:05 PM 59.9°F15.5°C 53.6°F12.0°C 76% 1.7 mph SW2.7 kmh SW 3.1 mph5.0 kmh 29.83 in1010.2 mb 0.00 in0.0 mm 0.00 in0.0 mm 0.18 in4.6 mm
06:10 PM 59.9°F15.5°C 53.6°F12.0°C 76% 1.3 mph SW2.1 kmh SW 3.1 mph5.0 kmh 29.86 in1011.2 mb 0.00 in0.0 mm 0.00 in0.0 mm 0.18 in4.6 mm
06:15 PM 59.9°F15.5°C 53.6°F12.0°C 76% 1.6 mph SW2.6 kmh SW 4.0 mph6.4 kmh 29.86 in1011.2 mb 0.00 in0.0 mm 0.00 in0.0 mm 0.18 in4.6 mm
06:20 PM 59.7°F15.4°C 51.8°F11.0°C 76% 2.0 mph SW3.2 kmh SW 4.0 mph6.4 kmh 29.86 in1011.2 mb 0.00 in0.0 mm 0.00 in0.0 mm 0.18 in4.6 mm
06:25 PM 59.7°F15.4°C 51.8°F11.0°C 76% 1.8 mph SW2.9 kmh SW 4.7 mph7.6 kmh 29.83 in1010.2 mb 0.00 in0.0 mm 0.00 in0.0 mm 0.18 in4.6 mm
06:30 PM 59.7°F15.4°C 51.8°F11.0°C 76% 2.3 mph SW3.7 kmh SW 4.7 mph7.6 kmh 29.83 in1010.2 mb 0.00 in0.0 mm 0.00 in0.0 mm 0.18 in4.6 mm
06:35 PM 59.5°F15.3°C 51.8°F11.0°C 76% 1.9 mph SW3.1 kmh SW 4.7 mph7.6 kmh 29.83 in1010.2 mb 0.00 in0.0 mm 0.00 in0.0 mm 0.18 in4.6 mm
06:40 PM 59.4°F15.2°C 51.8°F11.0°C 76% 1.0 mph SW1.6 kmh SW 2.7 mph4.3 kmh 29.86 in1011.2 mb 0.00 in0.0 mm 0.00 in0.0 mm 0.18 in4.6 mm
06:45 PM 59.4°F15.2°C 51.8°F11.0°C 76% 0.7 mph W1.1 kmh W 1.6 mph2.6 kmh 29.86 in1011.2 mb 0.00 in0.0 mm 0.00 in0.0 mm 0.18 in4.6 mm
06:50 PM 59.4°F15.2°C 51.8°F11.0°C 76% 1.5 mph SW2.4 kmh SW 4.3 mph6.9 kmh 29.86 in1011.2 mb 0.00 in0.0 mm 0.00 in0.0 mm 0.18 in4.6 mm
06:55 PM 59.4°F15.2°C 51.8°F11.0°C 76% 2.7 mph SW4.3 kmh SW 6.5 mph10.5 kmh 29.86 in1011.2 mb 0.00 in0.0 mm 0.00 in0.0 mm 0.18 in4.6 mm
07:00 PM 59.2°F15.1°C 51.8°F11.0°C 75% 2.9 mph SW4.7 kmh SW 6.5 mph10.5 kmh 29.86 in1011.2 mb 0.00 in0.0 mm 0.00 in0.0 mm 0.18 in4.6 mm
07:05 PM 59.0°F15.0°C 51.8°F11.0°C 75% 2.3 mph S3.7 kmh S 4.3 mph6.9 kmh 29.86 in1011.2 mb 0.00 in0.0 mm 0.00 in0.0 mm 0.18 in4.6 mm
07:10 PM 59.0°F15.0°C 51.8°F11.0°C 75% 2.2 mph SW3.5 kmh SW 4.3 mph6.9 kmh 29.86 in1011.2 mb 0.00 in0.0 mm 0.00 in0.0 mm 0.18 in4.6 mm
07:15 PM 58.8°F14.9°C 51.8°F11.0°C 74% 2.8 mph SW4.5 kmh SW 4.3 mph6.9 kmh 29.86 in1011.2 mb 0.00 in0.0 mm 0.00 in0.0 mm 0.18 in4.6 mm
07:20 PM 58.8°F14.9°C 51.8°F11.0°C 75% 2.6 mph SW4.2 kmh SW 4.3 mph6.9 kmh 29.86 in1011.2 mb 0.00 in0.0 mm 0.00 in0.0 mm 0.18 in4.6 mm
07:25 PM 58.6°F14.8°C 51.8°F11.0°C 75% 1.5 mph SW2.4 kmh SW 2.9 mph4.7 kmh 29.86 in1011.2 mb 0.00 in0.0 mm 0.00 in0.0 mm 0.18 in4.6 mm
07:30 PM 58.6°F14.8°C 51.8°F11.0°C 75% 0.7 mph WSW1.1 kmh WSW 2.9 mph4.7 kmh 29.86 in1011.2 mb 0.00 in0.0 mm 0.00 in0.0 mm 0.18 in4.6 mm
07:35 PM 58.5°F14.7°C 51.8°F11.0°C 75% 1.4 mph WSW2.3 kmh WSW 3.6 mph5.8 kmh 29.86 in1011.2 mb 0.00 in0.0 mm 0.00 in0.0 mm 0.18 in4.6 mm
07:40 PM 58.5°F14.7°C 51.8°F11.0°C 75% 1.5 mph WSW2.4 kmh WSW 3.6 mph5.8 kmh 29.86 in1011.2 mb 0.00 in0.0 mm 0.00 in0.0 mm 0.18 in4.6 mm
07:45 PM 58.5°F14.7°C 51.8°F11.0°C 75% 1.0 mph WSW1.6 kmh WSW 3.6 mph5.8 kmh 29.86 in1011.2 mb 0.00 in0.0 mm 0.00 in0.0 mm 0.18 in4.6 mm
07:50 PM 58.3°F14.6°C 51.8°F11.0°C 75% 1.6 mph WSW2.6 kmh WSW 3.1 mph5.0 kmh 29.86 in1011.2 mb 0.00 in0.0 mm 0.00 in0.0 mm 0.18 in4.6 mm
07:55 PM 58.3°F14.6°C 51.8°F11.0°C 76% 2.0 mph WSW3.2 kmh WSW 3.1 mph5.0 kmh 29.86 in1011.2 mb 0.00 in0.0 mm 0.00 in0.0 mm 0.18 in4.6 mm
08:00 PM 58.3°F14.6°C 51.8°F11.0°C 76% 1.6 mph W2.6 kmh W 2.5 mph4.0 kmh 29.86 in1011.2 mb 0.00 in0.0 mm 0.00 in0.0 mm 0.18 in4.6 mm
08:05 PM 58.1°F14.5°C 51.8°F11.0°C 76% 0.7 mph WSW1.1 kmh WSW 2.5 mph4.0 kmh 29.86 in1011.2 mb 0.00 in0.0 mm 0.00 in0.0 mm 0.18 in4.6 mm
08:10 PM 58.1°F14.5°C 51.8°F11.0°C 76% 0.5 mph SW0.8 kmh SW 2.2 mph3.5 kmh 29.89 in1012.2 mb 0.00 in0.0 mm 0.00 in0.0 mm 0.18 in4.6 mm
08:15 PM 57.9°F14.4°C 50.0°F10.0°C 76% 1.2 mph SW1.9 kmh SW 3.6 mph5.8 kmh 29.89 in1012.2 mb 0.00 in0.0 mm 0.00 in0.0 mm 0.18 in4.6 mm
08:20 PM 57.7°F14.3°C 50.0°F10.0°C 76% 1.6 mph SSW2.6 kmh SSW 3.6 mph5.8 kmh 29.89 in1012.2 mb 0.00 in0.0 mm 0.00 in0.0 mm 0.18 in4.6 mm
08:25 PM 57.7°F14.3°C 51.8°F11.0°C 77% 1.2 mph SW1.9 kmh SW 3.6 mph5.8 kmh 29.89 in1012.2 mb 0.00 in0.0 mm 0.00 in0.0 mm 0.18 in4.6 mm
08:30 PM 57.6°F14.2°C 50.0°F10.0°C 76% 1.1 mph SW1.8 kmh SW 3.1 mph5.0 kmh 29.89 in1012.2 mb 0.00 in0.0 mm 0.00 in0.0 mm 0.18 in4.6 mm
08:35 PM 57.2°F14.0°C 50.0°F10.0°C 77% 0.8 mph SW1.3 kmh SW 3.1 mph5.0 kmh 29.89 in1012.2 mb 0.00 in0.0 mm 0.00 in0.0 mm 0.18 in4.6 mm
08:40 PM 57.2°F14.0°C 50.0°F10.0°C 77% 0.4 mph W0.6 kmh W 1.6 mph2.6 kmh 29.89 in1012.2 mb 0.00 in0.0 mm 0.00 in0.0 mm 0.18 in4.6 mm
08:45 PM 57.0°F13.9°C 50.0°F10.0°C 77% 0.5 mph WSW0.8 kmh WSW 2.0 mph3.2 kmh 29.89 in1012.2 mb 0.00 in0.0 mm 0.00 in0.0 mm 0.18 in4.6 mm
08:50 PM 56.8°F13.8°C 50.0°F10.0°C 77% 1.5 mph WSW2.4 kmh WSW 3.4 mph5.5 kmh 29.89 in1012.2 mb 0.00 in0.0 mm 0.00 in0.0 mm 0.18 in4.6 mm
08:55 PM 56.7°F13.7°C 50.0°F10.0°C 77% 1.5 mph WSW2.4 kmh WSW 3.4 mph5.5 kmh 29.89 in1012.2 mb 0.00 in0.0 mm 0.00 in0.0 mm 0.18 in4.6 mm
09:00 PM 56.7°F13.7°C 50.0°F10.0°C 77% 1.0 mph WSW1.6 kmh WSW 2.5 mph4.0 kmh 29.89 in1012.2 mb 0.00 in0.0 mm 0.00 in0.0 mm 0.18 in4.6 mm
09:05 PM 56.5°F13.6°C 50.0°F10.0°C 78% 1.2 mph WSW1.9 kmh WSW 2.5 mph4.0 kmh 29.89 in1012.2 mb 0.00 in0.0 mm 0.00 in0.0 mm 0.18 in4.6 mm
09:10 PM 56.5°F13.6°C 50.0°F10.0°C 78% 1.3 mph W2.1 kmh W 2.2 mph3.5 kmh 29.89 in1012.2 mb 0.00 in0.0 mm 0.00 in0.0 mm 0.18 in4.6 mm
09:15 PM 56.3°F13.5°C 50.0°F10.0°C 78% 0.9 mph WNW1.4 kmh WNW 2.2 mph3.5 kmh 29.89 in1012.2 mb 0.00 in0.0 mm 0.00 in0.0 mm 0.18 in4.6 mm
09:20 PM 56.3°F13.5°C 50.0°F10.0°C 78% 0.3 mph WNW0.5 kmh WNW 1.3 mph2.1 kmh 29.89 in1012.2 mb 0.00 in0.0 mm 0.00 in0.0 mm 0.18 in4.6 mm
09:25 PM 56.1°F13.4°C 50.0°F10.0°C 78% 0.3 mph W0.5 kmh W 1.6 mph2.6 kmh 29.89 in1012.2 mb 0.00 in0.0 mm 0.00 in0.0 mm 0.18 in4.6 mm
09:30 PM 55.9°F13.3°C 50.0°F10.0°C 78% 0.2 mph W0.3 kmh W 1.6 mph2.6 kmh 29.89 in1012.2 mb 0.00 in0.0 mm 0.00 in0.0 mm 0.18 in4.6 mm
09:35 PM 55.8°F13.2°C 50.0°F10.0°C 78% 0.2 mph W0.3 kmh W 1.1 mph1.8 kmh 29.89 in1012.2 mb 0.00 in0.0 mm 0.00 in0.0 mm 0.18 in4.6 mm
09:40 PM 55.4°F13.0°C 48.2°F9.0°C 78% 0.6 mph WSW1.0 kmh WSW 2.5 mph4.0 kmh 29.89 in1012.2 mb 0.00 in0.0 mm 0.00 in0.0 mm 0.18 in4.6 mm
09:45 PM 55.2°F12.9°C 48.2°F9.0°C 78% 1.1 mph WSW1.8 kmh WSW 2.5 mph4.0 kmh 29.89 in1012.2 mb 0.00 in0.0 mm 0.00 in0.0 mm 0.18 in4.6 mm
09:50 PM 55.2°F12.9°C 48.2°F9.0°C 78% 1.4 mph WSW2.3 kmh WSW 2.7 mph4.3 kmh 29.89 in1012.2 mb 0.00 in0.0 mm 0.00 in0.0 mm 0.18 in4.6 mm
09:55 PM 55.0°F12.8°C 48.2°F9.0°C 78% 1.3 mph WSW2.1 kmh WSW 2.7 mph4.3 kmh 29.89 in1012.2 mb 0.00 in0.0 mm 0.00 in0.0 mm 0.18 in4.6 mm
10:00 PM 55.0°F12.8°C 48.2°F9.0°C 78% 0.9 mph WSW1.4 kmh WSW 2.2 mph3.5 kmh 29.89 in1012.2 mb 0.00 in0.0 mm 0.00 in0.0 mm 0.18 in4.6 mm
10:05 PM 54.9°F12.7°C 48.2°F9.0°C 78% 0.7 mph SW1.1 kmh SW 1.6 mph2.6 kmh 29.89 in1012.2 mb 0.00 in0.0 mm 0.00 in0.0 mm 0.18 in4.6 mm
10:10 PM 54.5°F12.5°C 48.2°F9.0°C 78% 0.6 mph SW1.0 kmh SW 1.6 mph2.6 kmh 29.89 in1012.2 mb 0.00 in0.0 mm 0.00 in0.0 mm 0.18 in4.6 mm
10:15 PM 54.5°F12.5°C 48.2°F9.0°C 78% 0.5 mph W0.8 kmh W 1.1 mph1.8 kmh 29.89 in1012.2 mb 0.00 in0.0 mm 0.00 in0.0 mm 0.18 in4.6 mm
10:20 PM 54.5°F12.5°C 48.2°F9.0°C 78% 0.6 mph W1.0 kmh W 2.2 mph3.5 kmh 29.89 in1012.2 mb 0.00 in0.0 mm 0.00 in0.0 mm 0.18 in4.6 mm
10:25 PM 54.3°F12.4°C 48.2°F9.0°C 78% 0.8 mph WSW1.3 kmh WSW 2.2 mph3.5 kmh 29.92 in1013.2 mb 0.00 in0.0 mm 0.00 in0.0 mm 0.18 in4.6 mm
10:30 PM 54.1°F12.3°C 48.2°F9.0°C 78% 0.9 mph WSW1.4 kmh WSW 2.0 mph3.2 kmh 29.92 in1013.2 mb 0.00 in0.0 mm 0.00 in0.0 mm 0.18 in4.6 mm
10:35 PM 54.0°F12.2°C 48.2°F9.0°C 78% 0.9 mph W1.4 kmh W 2.5 mph4.0 kmh 29.92 in1013.2 mb 0.00 in0.0 mm 0.00 in0.0 mm 0.18 in4.6 mm
10:40 PM 54.0°F12.2°C 48.2°F9.0°C 79% 1.0 mph NW1.6 kmh NW 2.5 mph4.0 kmh 29.92 in1013.2 mb 0.00 in0.0 mm 0.00 in0.0 mm 0.18 in4.6 mm
10:45 PM 54.0°F12.2°C 48.2°F9.0°C 79% 0.6 mph WNW1.0 kmh WNW 2.2 mph3.5 kmh 29.92 in1013.2 mb 0.00 in0.0 mm 0.00 in0.0 mm 0.18 in4.6 mm
10:50 PM 53.8°F12.1°C 48.2°F9.0°C 79% 0.2 mph SW0.3 kmh SW 2.2 mph3.5 kmh 29.92 in1013.2 mb 0.00 in0.0 mm 0.00 in0.0 mm 0.18 in4.6 mm
10:55 PM 53.4°F11.9°C 46.4°F8.0°C 78% Calm Calm -- 29.92 in1013.2 mb 0.00 in0.0 mm 0.00 in0.0 mm 0.18 in4.6 mm
11:00 PM 53.4°F11.9°C 48.2°F9.0°C 79% Calm Calm -- 29.92 in1013.2 mb 0.00 in0.0 mm 0.00 in0.0 mm 0.18 in4.6 mm
11:05 PM 53.4°F11.9°C 48.2°F9.0°C 79% Calm Calm -- 29.92 in1013.2 mb 0.00 in0.0 mm 0.00 in0.0 mm 0.18 in4.6 mm
11:10 PM 53.2°F11.8°C 46.4°F8.0°C 79% Calm Calm -- 29.92 in1013.2 mb 0.00 in0.0 mm 0.00 in0.0 mm 0.18 in4.6 mm
11:15 PM 52.9°F11.6°C 46.4°F8.0°C 79% 0.6 mph W1.0 kmh W 2.0 mph3.2 kmh 29.92 in1013.2 mb 0.00 in0.0 mm 0.00 in0.0 mm 0.18 in4.6 mm
11:20 PM 52.9°F11.6°C 46.4°F8.0°C 79% 0.8 mph W1.3 kmh W 2.0 mph3.2 kmh 29.92 in1013.2 mb 0.00 in0.0 mm 0.00 in0.0 mm 0.18 in4.6 mm
11:25 PM 52.9°F11.6°C 46.4°F8.0°C 79% 1.7 mph NNE2.7 kmh NNE 4.0 mph6.4 kmh 29.92 in1013.2 mb 0.00 in0.0 mm 0.00 in0.0 mm 0.18 in4.6 mm
11:30 PM 52.7°F11.5°C 46.4°F8.0°C 79% 1.6 mph NNE2.6 kmh NNE 4.0 mph6.4 kmh 29.92 in1013.2 mb 0.00 in0.0 mm 0.00 in0.0 mm 0.18 in4.6 mm
11:35 PM 52.5°F11.4°C 46.4°F8.0°C 79% 0.4 mph N0.6 kmh N 2.2 mph3.5 kmh 29.92 in1013.2 mb 0.00 in0.0 mm 0.00 in0.0 mm 0.18 in4.6 mm
11:40 PM 52.2°F11.2°C 46.4°F8.0°C 79% 0.4 mph WNW0.6 kmh WNW 2.2 mph3.5 kmh 29.92 in1013.2 mb 0.00 in0.0 mm 0.00 in0.0 mm 0.18 in4.6 mm
11:45 PM 52.0°F11.1°C 46.4°F8.0°C 79% 0.3 mph WNW0.5 kmh WNW 2.2 mph3.5 kmh 29.92 in1013.2 mb 0.00 in0.0 mm 0.00 in0.0 mm 0.18 in4.6 mm
11:50 PM 51.8°F11.0°C 44.6°F7.0°C 78% Calm Calm -- 29.92 in1013.2 mb 0.00 in0.0 mm 0.00 in0.0 mm 0.18 in4.6 mm
11:55 PM 51.6°F10.9°C 44.6°F7.0°C 78% Calm Calm -- 29.92 in1013.2 mb 0.00 in0.0 mm 0.00 in0.0 mm 0.18 in4.6 mm